createdAt,value
2018-11-10T00:01:42.589Z,39.33
2018-11-10T00:04:12.989Z,40.00
2018-11-10T00:06:43.014Z,43.03
2018-11-10T00:09:12.868Z,42.30
2018-11-10T00:11:43.182Z,39.17
2018-11-10T00:14:13.128Z,38.43
2018-11-10T00:16:44.140Z,36.67
2018-11-10T00:19:14.198Z,34.70
2018-11-10T00:21:44.072Z,31.87
2018-11-10T00:24:55.759Z,34.67
2018-11-10T00:27:26.426Z,35.10
2018-11-10T00:29:56.216Z,36.70
2018-11-10T00:32:26.120Z,32.27
2018-11-10T00:34:55.922Z,33.93
2018-11-10T00:37:26.482Z,32.40
2018-11-10T00:39:56.418Z,33.00
2018-11-10T00:42:26.258Z,32.17
2018-11-10T00:44:56.042Z,34.87
2018-11-10T00:47:25.814Z,35.87
2018-11-10T00:49:55.602Z,34.60
2018-11-10T00:52:25.378Z,32.57
2018-11-10T00:54:55.174Z,35.37
2018-11-10T00:57:24.933Z,39.10
2018-11-10T00:59:55.105Z,37.50
2018-11-10T01:02:25.106Z,34.70
2018-11-10T01:04:54.900Z,33.73
2018-11-10T01:07:24.652Z,35.00
2018-11-10T01:09:54.409Z,35.33
2018-11-10T01:12:24.157Z,35.50
2018-11-10T01:14:53.954Z,38.07
2018-11-10T01:17:23.826Z,31.37
2018-11-10T01:19:53.621Z,41.83
2018-11-10T01:22:23.399Z,40.70
2018-11-10T01:24:53.209Z,39.43
2018-11-10T01:27:23.022Z,43.10
2018-11-10T01:29:53.103Z,61.50
2018-11-10T01:32:22.925Z,52.47
2018-11-10T01:34:52.668Z,54.10
2018-11-10T01:37:22.427Z,47.80
2018-11-10T01:39:52.188Z,51.73
2018-11-10T01:42:21.995Z,56.17
2018-11-10T01:44:51.721Z,57.47
2018-11-10T01:47:21.485Z,59.47
2018-11-10T01:49:51.685Z,66.13
2018-11-10T01:52:21.623Z,58.97
2018-11-10T01:54:51.381Z,67.03
2018-11-10T01:57:21.137Z,70.07
2018-11-10T01:59:50.870Z,73.73
2018-11-10T02:02:20.668Z,69.37
2018-11-10T02:04:50.593Z,69.53
2018-11-10T02:07:20.405Z,75.73
2018-11-10T02:09:50.202Z,74.37
2018-11-10T02:12:20.043Z,80.53
2018-11-10T02:14:49.834Z,78.43
2018-11-10T02:17:19.763Z,71.77
2018-11-10T02:19:49.591Z,78.70
2018-11-10T02:22:19.733Z,73.20
2018-11-10T02:24:49.566Z,74.10
2018-11-10T02:27:23.615Z,64.43
2018-11-10T02:29:55.766Z,66.10
2018-11-10T02:32:25.505Z,60.07
2018-11-10T02:34:56.015Z,54.73
2018-11-10T02:37:25.905Z,54.20
2018-11-10T02:39:55.669Z,52.73
2018-11-10T02:42:25.612Z,55.03
2018-11-10T02:44:56.153Z,49.03
2018-11-10T02:47:26.001Z,49.13
2018-11-10T02:49:55.807Z,41.20
2018-11-10T02:52:25.987Z,41.83
2018-11-10T02:54:56.098Z,42.53
2018-11-10T02:57:26.711Z,41.67
2018-11-10T02:59:56.555Z,38.33
2018-11-10T03:02:26.591Z,40.53
2018-11-10T03:04:56.649Z,44.83
2018-11-10T03:07:26.505Z,37.27
2018-11-10T03:09:56.353Z,38.83
2018-11-10T03:12:26.144Z,37.60
2018-11-10T03:14:55.967Z,39.27
2018-11-10T03:17:25.919Z,40.03
2018-11-10T03:19:55.734Z,44.70
2018-11-10T03:22:25.567Z,36.30
2018-11-10T03:24:55.331Z,36.83
2018-11-10T03:27:25.213Z,39.47
2018-11-10T03:29:55.143Z,41.77
2018-11-10T03:32:25.111Z,37.23
2018-11-10T03:34:54.993Z,39.87
2018-11-10T03:37:24.764Z,38.13
2018-11-10T03:39:54.524Z,39.43
2018-11-10T03:42:24.515Z,45.20
2018-11-10T03:44:54.291Z,46.07
2018-11-10T03:47:24.119Z,42.73
2018-11-10T03:49:53.903Z,46.83
2018-11-10T03:52:23.681Z,43.27
2018-11-10T03:54:53.744Z,38.23
2018-11-10T03:57:23.541Z,37.00
2018-11-10T03:59:53.300Z,42.83
2018-11-10T04:02:23.095Z,42.57
2018-11-10T04:04:52.903Z,46.77
2018-11-10T04:07:22.928Z,41.90
2018-11-10T04:09:52.765Z,41.47
2018-11-10T04:12:22.578Z,42.97
2018-11-10T04:14:52.323Z,46.80
2018-11-10T04:17:22.170Z,43.10
2018-11-10T04:19:52.032Z,40.10
2018-11-10T04:22:37.956Z,40.20
2018-11-10T04:25:10.276Z,37.73
2018-11-10T04:27:40.163Z,34.33
2018-11-10T04:30:11.068Z,28.30
2018-11-10T04:32:40.912Z,28.93
2018-11-10T04:35:10.733Z,26.77
2018-11-10T04:37:40.498Z,24.00
2018-11-10T04:40:11.390Z,24.37
2018-11-10T04:42:41.706Z,26.10
2018-11-10T04:45:12.541Z,24.53
2018-11-10T04:47:42.368Z,24.37
2018-11-10T04:50:12.856Z,25.83
2018-11-10T04:52:43.053Z,25.80
2018-11-10T04:55:13.567Z,29.43
2018-11-10T04:57:43.384Z,28.93
2018-11-10T05:00:15.048Z,29.97
2018-11-10T05:02:45.903Z,28.03
2018-11-10T05:05:15.772Z,29.03
2018-11-10T05:07:45.602Z,29.30
2018-11-10T05:10:15.384Z,30.33
2018-11-10T05:12:45.210Z,29.73
2018-11-10T05:15:15.120Z,29.37
2018-11-10T05:17:44.970Z,28.00
2018-11-10T05:20:14.806Z,30.73
2018-11-10T05:22:44.668Z,33.10
2018-11-10T05:25:15.214Z,28.30
2018-11-10T05:27:44.987Z,28.73
2018-11-10T05:30:14.997Z,27.97
2018-11-10T05:32:44.952Z,28.87
2018-11-10T05:35:14.674Z,32.53
2018-11-10T05:37:44.676Z,31.77
2018-11-10T05:40:14.426Z,29.30
2018-11-10T05:42:44.264Z,28.37
2018-11-10T05:45:14.086Z,28.67
2018-11-10T05:47:43.902Z,29.90
2018-11-10T05:50:13.726Z,26.33
2018-11-10T05:52:43.538Z,23.07
2018-11-10T05:55:13.931Z,23.93
2018-11-10T05:57:43.722Z,25.50
2018-11-10T06:00:14.135Z,27.40
2018-11-10T06:02:43.950Z,26.23
2018-11-10T06:05:13.941Z,24.53
2018-11-10T06:07:44.495Z,25.67
2018-11-10T06:10:14.504Z,23.80
2018-11-10T06:12:44.640Z,24.57
2018-11-10T06:15:14.615Z,25.00
2018-11-10T06:17:44.390Z,25.57
2018-11-10T06:20:14.680Z,24.97
2018-11-10T06:22:44.565Z,25.60
2018-11-10T06:25:14.475Z,27.40
2018-11-10T06:27:44.317Z,25.47
2018-11-10T06:30:14.112Z,27.70
2018-11-10T06:32:43.961Z,26.10
2018-11-10T06:35:13.917Z,29.90
2018-11-10T06:44:55.972Z,29.77
2018-11-10T06:47:26.049Z,32.13
2018-11-10T06:49:55.948Z,28.83
2018-11-10T06:52:25.735Z,25.57
2018-11-10T06:54:55.571Z,22.60
2018-11-10T06:57:56.332Z,26.33
2018-11-10T07:00:26.205Z,28.70
2018-11-10T07:02:56.179Z,29.30
2018-11-10T07:05:26.817Z,27.73
2018-11-10T07:07:56.612Z,28.33
2018-11-10T07:10:26.423Z,32.43
2018-11-10T07:12:56.211Z,27.63
2018-11-10T07:15:26.014Z,25.67
2018-11-10T07:17:55.858Z,25.80
2018-11-10T07:20:25.833Z,23.17
2018-11-10T07:22:55.631Z,23.83
2018-11-10T07:25:25.425Z,23.70
2018-11-10T07:27:55.230Z,22.87
2018-11-10T07:30:25.044Z,21.60
2018-11-10T07:32:55.020Z,22.80
2018-11-10T07:35:24.824Z,24.83
2018-11-10T07:37:54.577Z,21.67
2018-11-10T07:40:24.539Z,23.53
2018-11-10T07:42:54.382Z,23.50
2018-11-10T07:45:24.329Z,20.90
2018-11-10T07:47:54.139Z,22.87
2018-11-10T07:50:23.897Z,19.23
2018-11-10T07:53:55.001Z,20.10
2018-11-10T07:56:24.819Z,24.13
2018-11-10T07:58:54.602Z,24.00
2018-11-10T08:01:24.435Z,23.37
2018-11-10T08:03:54.227Z,22.33
2018-11-10T08:06:24.000Z,23.07
2018-11-10T08:08:53.773Z,22.83
2018-11-10T08:11:23.548Z,22.90
2018-11-10T08:15:22.961Z,22.70
2018-11-10T08:17:52.767Z,24.43
2018-11-10T08:20:22.558Z,23.43
2018-11-10T08:22:52.383Z,25.00
2018-11-10T08:25:22.247Z,27.90
2018-11-10T08:27:52.281Z,24.73
2018-11-10T08:30:22.076Z,26.70
2018-11-10T08:32:51.889Z,24.97
2018-11-10T08:35:21.745Z,24.20
2018-11-10T08:37:51.553Z,26.17
2018-11-10T08:40:22.149Z,24.57
2018-11-10T08:42:51.958Z,21.67
2018-11-10T08:45:21.732Z,22.37
2018-11-10T08:47:51.590Z,21.67
2018-11-10T08:50:21.480Z,22.33
2018-11-10T08:52:51.388Z,25.03
2018-11-10T08:55:21.178Z,20.60
2018-11-10T08:57:50.999Z,21.80
2018-11-10T09:00:20.808Z,19.80
2018-11-10T09:02:50.805Z,22.43
2018-11-10T09:05:20.596Z,20.43
2018-11-10T09:07:50.501Z,21.53
2018-11-10T09:10:20.380Z,21.30
2018-11-10T09:12:50.284Z,21.03
2018-11-10T09:15:20.090Z,23.93
2018-11-10T09:17:50.209Z,24.83
2018-11-10T09:20:20.198Z,22.90
2018-11-10T09:22:50.075Z,20.30
2018-11-10T09:25:20.125Z,22.33
2018-11-10T09:27:50.014Z,22.90
2018-11-10T09:30:21.337Z,22.73
2018-11-10T09:32:51.208Z,23.30
2018-11-10T09:35:20.989Z,21.80
2018-11-10T09:37:50.917Z,23.83
2018-11-10T09:40:20.718Z,24.67
2018-11-10T09:42:50.552Z,24.17
2018-11-10T09:45:20.598Z,23.83
2018-11-10T09:47:50.418Z,23.60
2018-11-10T09:50:22.020Z,22.17
2018-11-10T09:52:52.052Z,21.70
2018-11-10T09:55:22.008Z,22.27
2018-11-10T09:57:51.832Z,21.63
2018-11-10T10:00:22.836Z,22.47
2018-11-10T10:02:52.769Z,22.43
2018-11-10T10:05:22.635Z,21.10
2018-11-10T10:07:52.558Z,20.37
2018-11-10T10:10:22.420Z,23.47
2018-11-10T10:12:52.526Z,23.33
2018-11-10T10:15:22.330Z,21.73
2018-11-10T10:17:52.674Z,23.60
2018-11-10T10:20:22.570Z,24.03
2018-11-10T10:22:52.655Z,26.07
2018-11-10T10:25:22.982Z,24.23
2018-11-10T10:27:52.912Z,23.67
2018-11-10T10:30:24.266Z,23.43
2018-11-10T10:32:54.292Z,23.57
2018-11-10T10:35:24.305Z,29.07
2018-11-10T10:37:54.734Z,26.17
2018-11-10T10:40:24.568Z,28.40
2018-11-10T10:42:55.183Z,28.37
2018-11-10T10:45:25.357Z,28.47
2018-11-10T10:47:55.140Z,31.97
2018-11-10T10:50:25.233Z,30.37
2018-11-10T10:52:55.280Z,28.57
2018-11-10T10:55:25.121Z,30.83
2018-11-10T10:57:54.943Z,30.37
2018-11-10T11:00:29.965Z,33.63
2018-11-10T11:03:05.051Z,31.60
2018-11-10T11:05:39.958Z,31.47
2018-11-10T11:08:09.805Z,27.97
2018-11-10T11:10:39.621Z,30.43
2018-11-10T11:13:09.477Z,30.53
2018-11-10T11:15:39.411Z,29.87
2018-11-10T11:18:09.534Z,29.60
2018-11-10T11:20:39.403Z,32.47
2018-11-10T11:23:09.428Z,37.93
2018-11-10T11:25:39.467Z,27.50
2018-11-10T11:28:09.415Z,26.57
2018-11-10T11:30:39.407Z,24.03
2018-11-10T11:33:09.369Z,24.63
2018-11-10T11:35:39.431Z,24.67
2018-11-10T11:38:09.684Z,26.50
2018-11-10T11:40:39.649Z,25.07
2018-11-10T11:43:09.541Z,25.37
2018-11-10T11:45:39.501Z,25.23
2018-11-10T11:48:09.389Z,25.57
2018-11-10T11:50:39.544Z,26.50
2018-11-10T11:53:09.425Z,24.90
2018-11-10T11:55:39.416Z,23.60
2018-11-10T11:58:09.382Z,24.13
2018-11-10T12:00:39.350Z,26.20
2018-11-10T12:03:09.225Z,23.97
2018-11-10T12:05:39.067Z,23.70
2018-11-10T12:08:08.952Z,26.57
2018-11-10T12:10:38.880Z,25.13
2018-11-10T12:13:08.841Z,23.97
2018-11-10T12:15:38.695Z,25.93
2018-11-10T12:18:08.611Z,22.87
2018-11-10T12:20:38.478Z,24.20
2018-11-10T12:23:08.415Z,23.90
2018-11-10T12:25:38.283Z,27.73
2018-11-10T12:28:08.191Z,25.80
2018-11-10T12:30:38.054Z,26.23
2018-11-10T12:33:07.965Z,28.90
2018-11-10T12:35:37.905Z,25.97
2018-11-10T12:38:07.873Z,26.07
2018-11-10T12:40:37.747Z,25.87
2018-11-10T12:43:07.633Z,28.27
2018-11-10T12:45:37.526Z,25.73
2018-11-10T12:48:07.573Z,27.40
2018-11-10T12:50:37.477Z,26.97
2018-11-10T12:53:07.338Z,32.03
2018-11-10T12:55:37.201Z,32.53
2018-11-10T12:58:07.416Z,34.60
2018-11-10T13:00:37.715Z,33.83
2018-11-10T13:03:07.737Z,28.80
2018-11-10T13:05:37.613Z,32.90
2018-11-10T13:08:07.604Z,35.87
2018-11-10T13:10:37.673Z,35.87
2018-11-10T13:13:07.697Z,33.27
2018-11-10T13:15:38.221Z,39.17
2018-11-10T13:18:08.095Z,31.27
2018-11-10T13:20:37.917Z,32.47
2018-11-10T13:23:07.821Z,35.03
2018-11-10T13:25:37.663Z,30.90
2018-11-10T13:28:07.497Z,30.30
2018-11-10T13:30:37.320Z,33.60
2018-11-10T13:33:07.939Z,35.53
2018-11-10T13:35:37.708Z,31.70
2018-11-10T13:38:07.538Z,34.17
2018-11-10T13:40:37.460Z,34.67
2018-11-10T13:43:08.093Z,33.07
2018-11-10T13:45:38.381Z,31.70
2018-11-10T13:48:08.181Z,30.00
2018-11-10T13:50:38.107Z,26.80
2018-11-10T13:53:56.653Z,28.33
2018-11-10T13:56:26.511Z,26.97
2018-11-10T13:58:56.355Z,26.97
2018-11-10T14:01:26.195Z,26.90
2018-11-10T14:03:56.107Z,29.07
2018-11-10T14:06:25.942Z,29.37
2018-11-10T14:08:55.771Z,25.57
2018-11-10T14:11:25.737Z,26.93
2018-11-10T14:13:55.549Z,27.03
2018-11-10T14:16:25.321Z,26.10
2018-11-10T14:18:55.143Z,27.10
2018-11-10T14:21:24.974Z,27.13
2018-11-10T14:23:54.810Z,22.63
2018-11-10T14:27:54.168Z,24.07
2018-11-10T14:30:24.174Z,22.77
2018-11-10T14:32:54.018Z,23.30
2018-11-10T14:35:23.820Z,22.90
2018-11-10T14:37:56.681Z,24.03
2018-11-10T14:40:26.499Z,24.50
2018-11-10T14:42:56.298Z,22.37
2018-11-10T14:45:26.122Z,22.87
2018-11-10T14:47:56.118Z,22.27
2018-11-10T14:50:25.964Z,22.73
2018-11-10T14:52:55.992Z,22.37
2018-11-10T14:55:25.831Z,22.07
2018-11-10T14:57:55.672Z,21.23
2018-11-10T15:00:26.732Z,22.20
2018-11-10T15:02:56.530Z,23.53
2018-11-10T15:05:26.347Z,23.27
2018-11-10T15:07:56.336Z,21.57
2018-11-10T15:10:26.294Z,22.00
2018-11-10T15:13:13.010Z,25.40
2018-11-10T15:15:42.790Z,22.20
2018-11-10T15:18:12.847Z,22.93
2018-11-10T15:20:42.718Z,24.20
2018-11-10T15:23:12.560Z,20.37
2018-11-10T15:25:42.415Z,24.50
2018-11-10T15:28:12.273Z,22.33
2018-11-10T15:30:42.119Z,24.30
2018-11-10T15:33:11.976Z,24.63
2018-11-10T15:35:41.980Z,26.07
2018-11-10T15:38:12.092Z,24.90
2018-11-10T15:40:41.930Z,24.60
2018-11-10T15:43:11.758Z,24.20
2018-11-10T15:45:41.601Z,23.73
2018-11-10T15:48:11.502Z,22.73
2018-11-10T15:50:41.344Z,22.23
2018-11-10T15:53:11.533Z,28.83
2018-11-10T15:55:41.315Z,39.13
2018-11-10T15:58:11.224Z,39.80
2018-11-10T16:00:41.022Z,28.83
2018-11-10T16:03:10.868Z,29.43
2018-11-10T16:05:40.616Z,29.77
2018-11-10T16:08:10.454Z,27.23
2018-11-10T16:10:40.364Z,23.20
2018-11-10T16:13:10.351Z,25.27
2018-11-10T16:15:40.207Z,26.10
2018-11-10T16:18:10.043Z,24.47
2018-11-10T16:20:39.938Z,26.37
2018-11-10T16:23:09.894Z,23.30
2018-11-10T16:29:15.888Z,23.83
2018-11-10T16:31:45.686Z,26.70
2018-11-10T16:34:15.521Z,22.43
2018-11-10T16:36:45.378Z,26.03
2018-11-10T16:39:15.171Z,23.53
2018-11-10T16:41:44.998Z,26.23
2018-11-10T16:44:14.814Z,21.90
2018-11-10T16:46:45.008Z,20.63
2018-11-10T16:49:15.009Z,23.13
2018-11-10T16:51:44.893Z,23.47
2018-11-10T16:54:14.784Z,21.67
2018-11-10T16:56:44.772Z,25.63
2018-11-10T16:59:14.703Z,20.43
2018-11-10T17:01:45.442Z,21.63
2018-11-10T17:04:15.227Z,25.00
2018-11-10T17:06:45.295Z,24.30
2018-11-10T17:09:15.233Z,26.90
2018-11-10T17:11:45.271Z,27.27
2018-11-10T17:14:15.420Z,29.30
2018-11-10T17:16:45.479Z,28.93
2018-11-10T17:19:15.608Z,28.37
2018-11-10T17:21:45.979Z,33.27
2018-11-10T17:24:16.004Z,26.77
2018-11-10T17:30:22.367Z,25.33
2018-11-10T17:32:52.207Z,36.27
2018-11-10T17:35:23.792Z,33.40
2018-11-10T17:37:53.713Z,33.97
2018-11-10T17:40:23.912Z,31.67
2018-11-10T17:46:30.189Z,30.40
2018-11-10T17:49:00.085Z,28.97
2018-11-10T17:51:29.951Z,28.90
2018-11-10T17:53:59.797Z,28.83
2018-11-10T17:56:29.745Z,26.20
2018-11-10T17:58:59.723Z,29.33
2018-11-10T18:01:29.689Z,28.37
2018-11-10T18:03:59.643Z,30.63
2018-11-10T18:06:29.551Z,33.57
2018-11-10T18:08:59.526Z,32.10
2018-11-10T18:11:29.559Z,33.63
2018-11-10T18:13:59.457Z,33.77
2018-11-10T18:16:29.367Z,39.63
2018-11-10T18:18:59.231Z,37.10
2018-11-10T18:21:29.331Z,36.30
2018-11-10T18:23:59.599Z,36.27
2018-11-10T18:26:29.481Z,35.53
2018-11-10T18:28:59.353Z,40.40
2018-11-10T18:31:29.190Z,39.83
2018-11-10T18:33:59.095Z,39.47
2018-11-10T18:36:29.061Z,44.37
2018-11-10T18:38:58.935Z,42.33
2018-11-10T18:41:28.785Z,45.93
2018-11-10T18:43:58.705Z,43.60
2018-11-10T18:46:28.620Z,45.10
2018-11-10T18:48:58.757Z,45.30
2018-11-10T18:51:28.667Z,46.70
2018-11-10T18:53:58.496Z,47.40
2018-11-10T18:56:28.408Z,48.07
2018-11-10T18:58:58.365Z,43.83
2018-11-10T19:01:28.337Z,42.73
2018-11-10T19:03:58.207Z,42.47
2018-11-10T19:06:28.184Z,37.47
2018-11-10T19:08:58.112Z,37.10
2018-11-10T19:11:28.004Z,39.23
2018-11-10T19:13:57.938Z,36.70
2018-11-10T19:16:27.769Z,40.10
2018-11-10T19:18:57.623Z,38.23
2018-11-10T19:21:27.436Z,35.77
2018-11-10T19:23:57.308Z,36.90
2018-11-10T19:26:27.143Z,33.93
2018-11-10T19:28:57.077Z,33.63
2018-11-10T19:31:26.959Z,33.23
2018-11-10T19:33:56.976Z,32.13
2018-11-10T19:36:26.876Z,32.53
2018-11-10T19:38:56.806Z,33.93
2018-11-10T19:41:26.716Z,33.93
2018-11-10T19:43:56.585Z,32.17
2018-11-10T19:46:26.486Z,37.03
2018-11-10T19:48:56.336Z,34.67
2018-11-10T19:51:26.390Z,32.70
2018-11-10T19:53:56.257Z,32.30
2018-11-10T19:56:26.160Z,34.13
2018-11-10T19:58:56.038Z,32.17
2018-11-10T20:01:25.921Z,34.87
2018-11-10T20:03:55.872Z,37.40
2018-11-10T20:06:25.781Z,37.30
2018-11-10T20:08:55.623Z,39.67
2018-11-10T20:11:25.493Z,42.10
2018-11-10T20:13:55.885Z,40.60
2018-11-10T20:16:25.980Z,45.00
2018-11-10T20:18:55.880Z,46.27
2018-11-10T20:21:25.708Z,52.40
2018-11-10T20:23:55.635Z,54.77
2018-11-10T20:26:25.489Z,51.73
2018-11-10T20:28:55.475Z,51.40
2018-11-10T20:31:25.377Z,50.33
2018-11-10T20:33:55.524Z,49.77
2018-11-10T20:36:25.406Z,50.53
2018-11-10T20:38:55.424Z,56.43
2018-11-10T20:41:25.632Z,49.63
2018-11-10T20:43:55.533Z,48.50
2018-11-10T20:46:25.398Z,49.77
2018-11-10T20:48:55.339Z,45.47
2018-11-10T20:51:25.210Z,47.20
2018-11-10T20:57:30.858Z,41.53
2018-11-10T21:00:00.935Z,43.60
2018-11-10T21:02:31.017Z,38.00
2018-11-10T21:05:00.967Z,38.27
2018-11-10T21:07:30.894Z,42.07
2018-11-10T21:10:00.882Z,41.00
2018-11-10T21:12:30.800Z,41.53
2018-11-10T21:15:00.901Z,44.30
2018-11-10T21:17:30.771Z,39.83
2018-11-10T21:20:00.692Z,42.33
2018-11-10T21:22:30.871Z,41.07
2018-11-10T21:25:00.767Z,37.47
2018-11-10T21:27:30.643Z,36.27
2018-11-10T21:30:00.590Z,36.10
2018-11-10T21:32:30.599Z,37.07
2018-11-10T21:35:00.554Z,37.77
2018-11-10T21:37:30.613Z,39.83
2018-11-10T21:40:00.654Z,39.67
2018-11-10T21:42:31.130Z,37.83
2018-11-10T21:45:01.050Z,39.60
2018-11-10T21:47:31.108Z,36.00
2018-11-10T21:50:01.042Z,38.73
2018-11-10T21:52:30.921Z,33.03
2018-11-10T21:55:00.826Z,34.50
2018-11-10T21:57:30.733Z,33.17
2018-11-10T22:00:00.825Z,36.43
2018-11-10T22:02:30.785Z,34.03
2018-11-10T22:05:00.819Z,33.90
2018-11-10T22:07:30.680Z,31.23
2018-11-10T22:10:00.641Z,35.27
2018-11-10T22:12:31.211Z,36.53
2018-11-10T22:15:01.127Z,34.97
2018-11-10T22:17:31.038Z,31.03
2018-11-10T22:20:00.932Z,32.97
2018-11-10T22:22:30.941Z,34.83
2018-11-10T22:25:01.080Z,38.13
2018-11-10T22:27:30.967Z,32.40
2018-11-10T22:30:00.895Z,30.13
2018-11-10T22:32:30.837Z,35.07
2018-11-10T22:35:00.725Z,33.63
2018-11-10T22:37:30.947Z,29.03
2018-11-10T22:40:00.968Z,31.63
2018-11-10T22:42:31.780Z,31.37
2018-11-10T22:45:02.101Z,33.70
2018-11-10T22:47:32.188Z,38.03
2018-11-10T22:50:02.135Z,36.13
2018-11-10T22:52:32.833Z,36.37
2018-11-10T22:55:02.709Z,31.87
2018-11-10T22:57:32.683Z,34.70
2018-11-10T23:00:55.753Z,36.20
2018-11-10T23:03:26.306Z,34.73
2018-11-10T23:05:56.303Z,31.93
2018-11-10T23:08:26.244Z,31.43
2018-11-10T23:10:56.385Z,29.27
2018-11-10T23:13:26.847Z,30.30
2018-11-10T23:15:58.727Z,30.07
2018-11-10T23:18:28.909Z,26.10
2018-11-10T23:20:58.871Z,27.70
2018-11-10T23:23:28.890Z,27.03
2018-11-10T23:25:58.683Z,24.77
2018-11-10T23:28:28.591Z,32.43
2018-11-10T23:30:58.665Z,27.00
2018-11-10T23:33:28.690Z,27.67
2018-11-10T23:35:58.621Z,26.37
2018-11-10T23:38:28.549Z,27.40
2018-11-10T23:44:33.881Z,27.50
2018-11-10T23:47:03.747Z,30.43
2018-11-10T23:49:33.703Z,28.17
2018-11-10T23:52:03.605Z,29.67
2018-11-10T23:54:33.619Z,30.20
2018-11-10T23:57:03.763Z,30.83
2018-11-10T23:59:33.917Z,32.57
